Air Navigation Services of Czech Republic
Airport: LKKV Updated:  24.07.2021 08:00:29  UTC
 METAR LKKV 24.07. 08:00 ...
METAR LKKV 240800Z 14005KT 120V180 CAVOK 22/13 Q1015 RMK REG QNH 1012=
 TAF LKKV 24.07. 05:00 ...
TAF LKKV 240500Z 2406/2512 12004KT CAVOK      TEMPO 2410/2506 18006KT      PROB30 TEMPO 2418/2422 8000 SHRA BKN045      BECMG 2422/2500 9999 SCT040      TEMPO 2500/2512 7000 SHRA SCT040TCU      PROB30 TEMPO 2508/2512 4000 TSRA SCT030CB=